Time;durP1;ratioP1;P1;durP2;ratioP2;P2;SDS_P1;SDS_P2;PMS_P1;PMS_P2;Temp;Humidity;BMP_temperature;BMP_pressure;BME280_temperature;BME280_humidity;BME280_pressure;Samples;Min_cycle;Max_cycle;Signal;HPM_P1;HPM_P2
2022/11/13 06:51:26;;;;;;;35.30;21.80;;;;;;;8.62;92.52;101684.27;96856;1328;636024;-69
2022/11/13 06:54:12;;;;;;;36.90;21.80;;;;;;;8.59;92.46;101688.77;98868;1304;137403;-69
2022/11/13 06:56:58;;;;;;;34.70;21.10;;;;;;;8.60;92.34;101688.60;98946;1310;107112;-69
2022/11/13 06:59:44;;;;;;;36.80;22.40;;;;;;;8.62;92.46;101687.58;98846;1294;138480;-69
2022/11/13 07:02:31;;;;;;;33.70;20.70;;;;;;;8.64;92.22;101686.02;99044;1300;107379;-69
2022/11/13 07:05:17;;;;;;;35.20;21.70;;;;;;;8.65;92.17;101686.36;98865;1296;259372;-69
2022/11/13 07:08:03;;;;;;;33.50;20.40;;;;;;;8.68;92.29;101681.68;99655;1292;94376;-69
2022/11/13 07:10:56;;;;;;;35.50;21.10;;;;;;;8.73;92.34;101680.27;99568;1295;137953;-69
2022/11/13 07:13:43;;;;;;;34.10;21.50;;;;;;;8.78;92.01;101679.56;99710;1293;94417;-69
2022/11/13 07:16:29;;;;;;;27.90;17.50;;;;;;;8.84;92.11;101676.11;99578;1296;137554;-69
2022/11/13 07:19:34;;;;;;;30.90;19.30;;;;;;;8.93;91.92;101675.20;99609;1295;106588;-69
2022/11/13 07:22:20;;;;;;;29.90;19.20;;;;;;;8.98;91.43;101674.33;99685;1291;95203;-69
2022/11/13 07:25:06;;;;;;;32.40;19.90;;;;;;;9.03;91.41;101678.13;99676;1301;106821;-72
2022/11/13 07:27:52;;;;;;;30.30;19.00;;;;;;;9.06;91.11;101678.11;101245;1296;93148;-69
2022/11/13 07:30:37;;;;;;;29.40;18.50;;;;;;;9.06;90.85;101680.37;101192;1292;137631;-70
2022/11/13 07:33:23;;;;;;;27.00;18.10;;;;;;;9.07;90.82;101675.86;100600;1294;107789;-71
2022/11/13 07:36:11;;;;;;;30.40;18.20;;;;;;;9.05;90.55;101676.21;99637;1292;137932;-69
2022/11/13 07:38:56;;;;;;;29.30;18.70;;;;;;;9.03;90.43;101674.84;99760;1291;107775;-69
2022/11/13 07:41:45;;;;;;;27.40;17.70;;;;;;;9.01;90.48;101681.61;99582;1294;137959;-69
2022/11/13 07:44:30;;;;;;;28.60;18.80;;;;;;;8.97;90.37;101680.20;99812;1298;108238;-69
2022/11/13 07:47:36;;;;;;;28.20;18.20;;;;;;;8.97;90.57;101676.74;99629;1299;137735;-69
2022/11/13 07:50:22;;;;;;;28.80;17.30;;;;;;;8.98;90.71;101675.72;99870;1297;95125;-69
2022/11/13 07:53:09;;;;;;;28.00;18.90;;;;;;;8.99;90.74;101677.98;100204;1291;137576;-70
2022/11/13 07:55:55;;;;;;;27.00;18.00;;;;;;;9.07;91.22;101679.67;101331;1299;93695;-70
2022/11/13 07:58:40;;;;;;;29.60;17.90;;;;;;;9.13;91.08;101677.55;101205;1300;138307;-70
2022/11/13 08:01:27;;;;;;;26.80;16.50;;;;;;;9.12;90.56;101672.71;99818;1295;106766;-69
2022/11/13 08:04:13;;;;;;;28.90;17.50;;;;;;;9.12;90.50;101673.40;99812;1278;95200;-71
2022/11/13 08:06:58;;;;;;;24.60;15.90;;;;;;;9.11;90.62;101677.40;99890;1292;106938;-70
2022/11/13 08:09:44;;;;;;;23.20;15.20;;;;;;;9.15;90.85;101673.75;99804;1292;95142;-70
2022/11/13 08:12:30;;;;;;;24.80;15.30;;;;;;;9.22;91.09;101674.07;99657;1301;137642;-70
2022/11/13 08:15:16;;;;;;;23.60;15.60;;;;;;;9.29;90.98;101676.11;99792;1291;107508;-70
2022/11/13 08:18:03;;;;;;;26.50;15.20;;;;;;;9.31;90.50;101679.92;99662;1296;137815;-70
2022/11/13 08:20:49;;;;;;;25.00;16.20;;;;;;;9.32;90.47;101679.39;99858;1292;107236;-70
2022/11/13 08:23:35;;;;;;;23.30;15.80;;;;;;;9.34;90.22;101677.84;99788;1291;137908;-70
2022/11/13 08:26:21;;;;;;;23.00;14.40;;;;;;;9.33;89.98;101675.41;99847;1291;109617;-70
2022/11/13 08:29:07;;;;;;;23.40;15.70;;;;;;;9.33;89.85;101675.23;99676;1292;137057;-70
2022/11/13 08:31:53;;;;;;;24.60;16.00;;;;;;;9.34;89.99;101672.12;99922;1292;95226;-70
2022/11/13 08:34:39;;;;;;;21.90;14.60;;;;;;;9.41;89.96;101671.91;99811;1299;137019;-70
2022/11/13 08:37:25;;;;;;;24.30;15.50;;;;;;;9.34;89.37;101670.55;101305;1288;93960;-70
2022/11/13 08:40:12;;;;;;;23.90;15.60;;;;;;;9.29;89.46;101674.73;101360;1298;107755;-70
2022/11/13 08:43:00;;;;;;;;;;;;;;;9.25;89.37;101678.92;100429;1292;108012;-70
2022/11/13 08:45:47;;;;;;;25.10;15.40;;;;;;;9.25;89.51;101678.92;99781;1297;95691;-70
2022/11/13 08:48:32;;;;;;;23.50;14.80;;;;;;;9.21;89.30;101675.98;99642;1297;138700;-70
2022/11/13 08:51:18;;;;;;;24.20;14.80;;;;;;;9.20;89.35;101679.29;99756;1291;94997;-69
2022/11/13 08:54:04;;;;;;;23.20;15.40;;;;;;;9.20;89.47;101681.89;99610;1293;139140;-69
2022/11/13 08:56:50;;;;;;;20.70;14.00;;;;;;;9.23;89.64;101684.48;99784;1299;105454;-69
2022/11/13 08:59:43;;;;;;;21.10;14.10;;;;;;;9.28;89.76;101681.85;99744;1294;137844;-69
2022/11/13 09:02:29;;;;;;;26.50;15.80;;;;;;;9.36;89.79;101681.66;99824;1291;107504;-70
2022/11/13 09:05:15;;;;;;;21.80;15.20;;;;;;;9.41;89.50;101679.54;99753;1292;137021;-69
2022/11/13 09:08:02;;;;;;;26.80;16.30;;;;;;;9.43;89.13;101677.64;99860;1294;109110;-70
2022/11/13 09:10:48;;;;;;;22.80;15.10;;;;;;;9.45;88.95;101676.05;99742;1297;138597;-69
2022/11/13 09:13:35;;;;;;;23.40;15.10;;;;;;;9.44;88.45;101673.63;99810;1291;95100;-69
2022/11/13 09:16:28;;;;;;;24.60;15.00;;;;;;;9.42;88.62;101670.86;99859;1297;106405;-70
2022/11/13 09:19:14;;;;;;;21.80;13.20;;;;;;;9.41;88.52;101667.91;99768;1292;95208;-69
2022/11/13 09:22:00;;;;;;;21.00;14.00;;;;;;;9.43;88.95;101670.15;99785;1301;109899;-69
2022/11/13 09:24:46;;;;;;;20.80;13.60;;;;;;;9.49;89.15;101672.20;99646;1294;138311;-70
2022/11/13 09:27:32;;;;;;;22.90;13.00;;;;;;;9.49;88.84;101668.73;99722;1290;95124;-71
2022/11/13 09:30:19;;;;;;;18.60;12.10;;;;;;;9.52;88.86;101665.95;99612;1297;137710;-69
2022/11/13 09:33:05;;;;;;;19.10;12.60;;;;;;;9.52;88.66;101667.35;99730;1295;95134;-69
2022/11/13 09:35:51;;;;;;;17.80;12.50;;;;;;;9.54;88.79;101670.12;99682;1284;137525;-69
2022/11/13 09:38:37;;;;;;;20.70;13.10;;;;;;;9.58;88.73;101671.14;99811;1290;105547;-69
2022/11/13 09:41:27;;;;;;;19.30;12.40;;;;;;;9.58;88.48;101666.44;99756;1297;139164;-69
2022/11/13 09:44:19;;;;;;;17.00;11.90;;;;;;;9.53;88.16;101666.31;99742;1291;106722;-68
2022/11/13 09:47:11;;;;;;;17.90;11.90;;;;;;;9.49;88.25;101664.39;99702;1295;138104;-69
2022/11/13 09:50:03;;;;;;;19.30;12.40;;;;;;;9.47;88.46;101659.20;99778;1291;107650;-69
2022/11/13 09:52:50;;;;;;;18.80;11.60;;;;;;;9.49;88.62;101659.70;99613;1291;138064;-69
2022/11/13 09:55:46;;;;;;;17.60;12.40;;;;;;;9.54;89.01;101658.83;99728;1291;95153;-69
2022/11/13 09:58:44;;;;;;;18.80;12.30;;;;;;;9.61;89.17;101657.91;99633;1295;137985;-69
2022/11/13 10:01:49;;;;;;;19.00;12.40;;;;;;;9.63;88.81;101651.30;101291;1298;93357;-70
2022/11/13 10:04:51;;;;;;;19.90;12.20;;;;;;;9.63;88.58;101653.56;101209;1292;138650;-70
2022/11/13 10:07:44;;;;;;;18.00;11.20;;;;;;;9.61;88.43;101648.36;101302;1301;107967;-70
2022/11/13 10:10:45;;;;;;;17.00;10.50;;;;;;;9.61;88.16;101646.98;101286;1295;93390;-70
2022/11/13 10:13:44;;;;;;;17.20;11.40;;;;;;;9.59;88.19;101643.16;101138;1298;107821;-70
2022/11/13 10:16:34;;;;;;;14.70;9.70;;;;;;;9.59;88.13;101641.95;101189;1305;94169;-70
2022/11/13 10:19:26;;;;;;;13.80;8.80;;;;;;;9.65;88.36;101637.73;100830;1301;109211;-69
2022/11/13 10:22:18;;;;;;;14.90;9.20;;;;;;;9.66;87.70;101639.30;99718;1289;107855;-69
2022/11/13 10:25:21;;;;;;;13.60;8.40;;;;;;;9.63;87.56;101641.21;99725;1291;95740;-69
2022/11/13 10:28:15;;;;;;;12.60;8.00;;;;;;;9.62;87.43;101637.58;99882;1297;108178;-69
2022/11/13 10:31:21;;;;;;;12.00;8.10;;;;;;;9.64;87.68;101631.31;99752;1292;95133;-69
2022/11/13 10:34:07;;;;;;;14.10;8.90;;;;;;;9.66;87.75;101634.42;99799;1289;107525;-68
2022/11/13 10:37:24;;;;;;;15.90;9.00;;;;;;;9.71;88.00;101635.12;99625;1291;138068;-68
2022/11/13 10:40:11;;;;;;;13.80;8.80;;;;;;;9.75;88.00;101635.60;99717;1298;95116;-68
2022/11/13 10:43:07;;;;;;;17.30;10.00;;;;;;;9.78;88.08;101634.54;99580;1297;137429;-68
2022/11/13 10:45:58;;;;;;;13.60;9.00;;;;;;;9.80;87.87;101628.44;99839;1297;95037;-68
2022/11/13 10:48:44;;;;;;;16.90;9.40;;;;;;;9.85;88.09;101631.88;99718;1297;137742;-68
2022/11/13 10:51:33;;;;;;;16.20;9.60;;;;;;;9.87;87.80;101629.95;99644;1298;108077;-68
2022/11/13 10:54:25;;;;;;;13.60;9.50;;;;;;;9.89;87.90;101626.64;99665;1291;137911;-68
2022/11/13 10:57:24;;;;;;;17.20;9.90;;;;;;;9.90;87.78;101624.38;101252;1298;107339;-68
2022/11/13 11:00:25;;;;;;;14.30;9.90;;;;;;;9.90;87.55;101622.47;101151;1291;139130;-68
2022/11/13 11:03:16;;;;;;;17.30;10.70;;;;;;;9.84;87.22;101617.63;101303;1292;108954;-68
2022/11/13 11:06:04;;;;;;;18.40;11.70;;;;;;;9.82;87.43;101612.61;100196;1298;138179;-68
2022/11/13 11:08:50;;;;;;;22.00;11.60;;;;;;;9.84;87.49;101613.29;101255;1299;93591;-67
2022/11/13 11:14:45;;;;;;;17.90;11.30;;;;;;;9.89;87.23;101615.02;101217;1298;93594;-68
2022/11/13 11:17:38;;;;;;;18.70;12.50;;;;;;;9.85;86.78;101613.45;100147;1296;137898;-68
2022/11/13 11:20:32;;;;;;;20.70;12.00;;;;;;;9.83;86.74;101612.95;100752;1263;108106;-70
2022/11/13 11:23:27;;;;;;;15.30;10.30;;;;;;;9.84;86.86;101613.30;99527;1291;138380;-69
2022/11/13 11:26:16;;;;;;;19.20;10.90;;;;;;;9.87;87.14;101619.19;101139;1291;107038;-69
2022/11/13 11:29:26;;;;;;;17.40;10.70;;;;;;;9.95;87.40;101621.03;101024;1298;138379;-69
2022/11/13 11:32:16;;;;;;;16.30;10.70;;;;;;;10.02;87.37;101620.45;101268;1294;108022;-69
2022/11/13 11:35:12;;;;;;;15.10;9.90;;;;;;;10.08;86.94;101618.16;101101;1292;139244;-69
2022/11/13 11:38:04;;;;;;;16.80;11.00;;;;;;;10.11;86.87;101621.60;101297;1294;94451;-69
2022/11/13 11:40:55;;;;;;;16.90;10.30;;;;;;;10.14;86.75;101614.27;101143;1301;138954;-70
2022/11/13 11:43:46;;;;;;;20.90;13.80;;;;;;;10.18;86.72;101611.98;101279;1292;94589;-69
2022/11/13 11:46:32;;;;;;;17.40;11.60;;;;;;;10.24;86.80;101604.48;101232;1300;110885;-69
2022/11/13 11:49:25;;;;;;;17.60;10.50;;;;;;;10.28;86.33;101599.41;101131;1302;108670;-69
2022/11/13 11:52:24;;;;;;;17.00;10.60;;;;;;;10.24;86.01;101597.02;101153;1292;94683;-72
2022/11/13 11:55:26;;;;;;;17.20;10.60;;;;;;;10.24;86.04;101593.37;101172;1302;107066;-70
2022/11/13 11:58:30;;;;;;;17.20;10.70;;;;;;;10.27;86.16;101590.56;101138;1297;94563;-71
2022/11/13 12:01:25;;;;;;;15.10;11.00;;;;;;;10.31;85.99;101589.82;101177;1283;109933;-69
2022/11/13 12:04:35;;;;;;;17.30;11.70;;;;;;;10.31;85.85;101589.83;101266;1292;108851;-69
2022/11/13 12:07:39;;;;;;;18.40;11.60;;;;;;;10.27;85.50;101586.20;101262;1295;94613;-70
2022/11/13 12:10:32;;;;;;;17.30;11.70;;;;;;;10.27;85.65;101581.17;101291;1289;106922;-70
2022/11/13 12:13:30;;;;;;;20.10;12.20;;;;;;;10.25;85.46;101582.23;101156;1289;138275;-69
2022/11/13 12:16:23;;;;;;;17.30;10.90;;;;;;;10.24;85.39;101584.50;101268;1288;109641;-70
2022/11/13 12:19:22;;;;;;;19.60;10.80;;;;;;;10.24;85.66;101581.73;101135;1292;139639;-70
2022/11/13 12:22:16;;;;;;;17.60;11.20;;;;;;;10.27;85.73;101578.39;101138;1301;94735;-69
2022/11/13 12:25:19;;;;;;;17.00;11.00;;;;;;;10.27;85.70;101577.17;100969;1302;139156;-70
2022/11/13 12:28:14;;;;;;;19.20;11.00;;;;;;;10.28;85.81;101578.38;101102;1295;94494;-70
2022/11/13 12:31:09;;;;;;;16.80;10.30;;;;;;;10.29;85.58;101574.37;101010;1301;139605;-68
2022/11/13 12:34:05;;;;;;;16.70;10.60;;;;;;;10.23;85.15;101576.33;100704;1299;106957;-69
2022/11/13 12:36:56;;;;;;;16.70;10.60;;;;;;;10.19;85.07;101571.46;99657;1291;138518;-69
2022/11/13 12:39:51;;;;;;;14.70;9.70;;;;;;;10.18;85.21;101573.73;99748;1291;107416;-69
2022/11/13 12:42:44;;;;;;;16.40;10.80;;;;;;;10.19;85.29;101572.84;99757;1294;138238;-69
2022/11/13 12:45:42;;;;;;;16.50;10.40;;;;;;;10.17;85.26;101567.66;99765;1291;109963;-68
2022/11/13 12:48:36;;;;;;;15.90;10.20;;;;;;;10.17;85.38;101563.14;99574;1297;138494;-68
2022/11/13 12:51:22;;;;;;;17.30;10.60;;;;;;;10.19;85.58;101558.44;99960;1291;97248;-68
2022/11/13 12:54:11;;;;;;;16.70;10.50;;;;;;;10.26;85.98;101558.77;99621;1292;138167;-68
2022/11/13 12:57:07;;;;;;;16.80;11.10;;;;;;;10.26;85.33;101559.63;99768;1285;96535;-69
2022/11/13 12:59:56;;;;;;;20.90;11.30;;;;;;;10.24;85.19;101561.04;99682;1290;138521;-68
2022/11/13 13:02:55;;;;;;;18.90;11.90;;;;;;;10.22;85.13;101561.73;99861;1292;107273;-69
2022/11/13 13:06:04;;;;;;;17.20;11.20;;;;;;;10.22;85.36;101558.43;101202;1298;138879;-69
2022/11/13 13:09:02;;;;;;;19.00;12.30;;;;;;;10.27;85.71;101564.84;100492;1299;106962;-69
2022/11/13 13:12:00;;;;;;;23.90;14.50;;;;;;;10.32;85.71;101560.26;99729;1290;138392;-69
2022/11/13 13:15:19;;;;;;;25.20;13.90;;;;;;;10.35;85.48;101552.23;99936;1297;109191;-69
2022/11/13 13:18:12;;;;;;;21.40;12.70;;;;;;;10.37;85.66;101554.98;99711;1284;138697;-69
2022/11/13 13:21:05;;;;;;;17.30;11.40;;;;;;;10.46;86.04;101553.67;99987;1282;95219;-69
2022/11/13 13:23:53;;;;;;;19.20;12.60;;;;;;;10.53;85.85;101554.11;99840;1290;138199;-69
2022/11/13 13:26:49;;;;;;;17.30;11.60;;;;;;;10.54;85.45;101547.84;99959;1281;96475;-69
2022/11/13 13:29:35;;;;;;;17.80;11.20;;;;;;;10.52;84.85;101546.81;99803;1298;138594;-69
2022/11/13 13:32:28;;;;;;;19.10;11.50;;;;;;;10.50;84.78;101547.36;99848;1291;107694;-69
2022/11/13 13:35:18;;;;;;;19.00;12.10;;;;;;;10.47;84.81;101547.77;99837;1290;138722;-71
2022/11/13 13:38:12;;;;;;;19.10;12.40;;;;;;;10.44;84.72;101545.54;99966;1290;108566;-69
2022/11/13 13:41:12;;;;;;;19.40;12.10;;;;;;;10.43;84.88;101545.20;99905;1291;96513;-69
2022/11/13 13:44:16;;;;;;;18.70;12.10;;;;;;;10.42;84.87;101541.91;99933;1290;109889;-69
2022/11/13 13:47:03;;;;;;;17.60;11.90;;;;;;;10.38;84.71;101539.14;99884;1291;107027;-72
2022/11/13 13:49:49;;;;;;;22.40;13.30;;;;;;;10.36;84.79;101535.52;99917;1291;96556;-69
2022/11/13 13:52:37;;;;;;;20.60;12.70;;;;;;;10.36;84.86;101536.21;99959;1292;107561;-71
2022/11/13 13:55:28;;;;;;;21.40;13.00;;;;;;;10.35;84.89;101531.53;99863;1297;138124;-71
2022/11/13 13:58:17;;;;;;;21.20;12.60;;;;;;;10.34;84.91;101531.55;99961;1296;109805;-69
2022/11/13 14:01:05;;;;;;;20.40;13.20;;;;;;;10.32;84.77;101529.66;99753;1292;138295;-69
2022/11/13 14:04:17;;;;;;;22.00;14.60;;;;;;;10.27;84.76;101525.37;99922;1298;96499;-69
2022/11/13 14:07:03;;;;;;;20.70;13.90;;;;;;;10.27;84.94;101526.06;99899;1297;138083;-68
2022/11/13 14:09:50;;;;;;;22.30;14.00;;;;;;;10.28;84.98;101525.19;99978;1292;96514;-69
2022/11/13 14:12:40;;;;;;;22.50;15.10;;;;;;;10.29;85.01;101523.27;99859;1284;138074;-68
2022/11/13 14:15:29;;;;;;;24.30;14.40;;;;;;;10.28;85.01;101524.84;99865;1288;106710;-70
2022/11/13 14:18:16;;;;;;;21.20;14.40;;;;;;;10.25;84.90;101523.14;99913;1298;138455;-69
2022/11/13 14:21:04;;;;;;;25.80;15.00;;;;;;;10.22;84.86;101523.15;99849;1289;107848;-69
2022/11/13 14:23:52;;;;;;;23.70;15.80;;;;;;;10.20;85.11;101522.44;99758;1291;138426;-77
2022/11/13 14:26:38;;;;;;;25.50;17.10;;;;;;;10.20;85.10;101525.22;100101;1291;110459;-70
2022/11/13 14:29:35;;;;;;;27.30;16.50;;;;;;;10.18;85.12;101521.24;99785;1298;138560;-69
2022/11/13 14:32:25;;;;;;;22.60;15.20;;;;;;;10.17;85.10;101520.39;99935;1297;96462;-69
2022/11/13 14:35:21;;;;;;;22.30;15.30;;;;;;;10.15;85.15;101522.84;99829;1291;138242;-69
2022/11/13 14:38:18;;;;;;;23.10;15.10;;;;;;;10.14;85.22;101520.42;99983;1289;96475;-69
2022/11/13 14:41:05;;;;;;;25.60;16.00;;;;;;;10.10;84.99;101521.16;99911;1291;110168;-69
2022/11/13 14:43:53;;;;;;;25.00;15.90;;;;;;;10.07;85.04;101517.72;99936;1283;107277;-69
2022/11/13 14:46:43;;;;;;;24.10;15.30;;;;;;;10.03;85.16;101522.77;99911;1291;96471;-69
2022/11/13 14:49:31;;;;;;;28.20;17.60;;;;;;;10.02;85.34;101519.14;99855;1290;107947;-69
2022/11/13 14:52:27;;;;;;;26.20;16.70;;;;;;;10.01;85.43;101523.84;99869;1291;96487;-69
2022/11/13 14:55:24;;;;;;;26.90;16.70;;;;;;;10.01;85.58;101523.67;99690;1289;138741;-69
2022/11/13 14:58:14;;;;;;;26.80;16.20;;;;;;;10.00;85.57;101517.41;99668;1290;108241;-71
2022/11/13 15:01:12;;;;;;;26.60;16.70;;;;;;;9.99;85.56;101512.75;99505;1292;138606;-70
2022/11/13 15:03:58;;;;;;;26.10;16.40;;;;;;;9.97;85.63;101504.95;99805;1291;107253;-70
2022/11/13 15:06:44;;;;;;;26.10;17.10;;;;;;;9.96;85.60;101505.14;99658;1291;139959;-70
2022/11/13 15:09:31;;;;;;;30.00;18.40;;;;;;;9.94;85.49;101502.20;100239;1289;111088;-70
2022/11/13 15:12:17;;;;;;;27.30;17.90;;;;;;;9.93;85.64;101500.48;101292;1290;138474;-70
2022/11/13 15:15:03;;;;;;;30.10;17.80;;;;;;;9.93;85.69;101498.21;101404;1288;94880;-70
2022/11/13 15:17:51;;;;;;;30.20;18.30;;;;;;;9.93;85.72;101498.73;101335;1297;138734;-71
2022/11/13 15:20:37;;;;;;;28.90;18.20;;;;;;;9.93;85.64;101493.02;101419;1292;94654;-70
2022/11/13 15:23:27;;;;;;;29.60;18.70;;;;;;;9.93;85.58;101490.05;101392;1296;138154;-70
2022/11/13 15:26:14;;;;;;;31.30;18.20;;;;;;;9.94;85.68;101490.22;100478;1291;106924;-69
2022/11/13 15:29:00;;;;;;;28.40;18.00;;;;;;;9.92;85.52;101488.15;99758;1290;96464;-69
2022/11/13 15:31:48;;;;;;;26.00;16.60;;;;;;;9.93;85.63;101488.32;99725;1289;107268;-69
2022/11/13 15:34:34;;;;;;;28.00;17.20;;;;;;;9.95;85.72;101487.08;99819;1288;96565;-69
2022/11/13 15:37:20;;;;;;;29.90;17.50;;;;;;;9.95;85.72;101490.90;99727;1285;137857;-69
2022/11/13 15:40:06;;;;;;;26.10;17.00;;;;;;;9.95;85.79;101490.20;99731;1281;107013;-69
2022/11/13 15:42:52;;;;;;;27.20;17.00;;;;;;;9.95;85.70;101485.34;99763;1282;138794;-70
2022/11/13 15:45:38;;;;;;;27.70;17.30;;;;;;;9.94;85.79;101491.79;99853;1297;106915;-69
2022/11/13 15:48:29;;;;;;;27.70;16.90;;;;;;;9.95;85.78;101485.69;99837;1295;138600;-69
2022/11/13 15:51:19;;;;;;;30.80;18.00;;;;;;;9.95;85.85;101484.13;99935;1282;109427;-69
2022/11/13 15:54:14;;;;;;;25.60;17.20;;;;;;;9.95;85.72;101488.64;99784;1298;138845;-69
2022/11/13 15:57:00;;;;;;;33.30;19.30;;;;;;;9.94;85.77;101492.14;99943;1294;96988;-69
2022/11/13 15:59:45;;;;;;;32.90;19.90;;;;;;;9.93;85.83;101490.56;99928;1290;138406;-70
2022/11/13 16:02:31;;;;;;;31.20;19.10;;;;;;;9.94;85.73;101489.00;99843;1275;96737;-69
2022/11/13 16:05:17;;;;;;;33.60;20.10;;;;;;;9.95;85.81;101492.64;99762;1284;138006;-69
2022/11/13 16:08:09;;;;;;;30.00;18.40;;;;;;;9.93;85.74;101491.62;99924;1292;107435;-71
2022/11/13 16:10:56;;;;;;;28.60;18.20;;;;;;;9.90;85.77;101491.13;99881;1281;96476;-70
2022/11/13 16:13:42;;;;;;;29.00;18.60;;;;;;;9.88;85.85;101489.06;99907;1291;108096;-70
2022/11/13 16:16:32;;;;;;;29.30;18.10;;;;;;;9.85;85.89;101486.46;99981;1296;96556;-71
2022/11/13 16:19:24;;;;;;;29.50;18.60;;;;;;;9.82;85.88;101487.37;99894;1292;137821;-70
2022/11/13 16:22:19;;;;;;;31.70;19.00;;;;;;;9.79;86.05;101493.30;99929;1290;108216;-70
2022/11/13 16:25:06;;;;;;;29.20;19.30;;;;;;;9.76;86.06;101491.09;99797;1291;138048;-70
2022/11/13 16:27:53;;;;;;;32.70;20.10;;;;;;;9.73;86.13;101493.38;100013;1290;106553;-70
2022/11/13 16:30:39;;;;;;;32.80;20.50;;;;;;;9.70;86.21;101493.05;99814;1289;138155;-70
2022/11/13 16:33:24;;;;;;;36.80;21.80;;;;;;;9.65;86.35;101496.38;99946;1289;108657;-70
2022/11/13 16:36:16;;;;;;;34.30;21.30;;;;;;;9.61;86.49;101497.45;99704;1292;138645;-71
2022/11/13 16:39:03;;;;;;;38.10;22.10;;;;;;;9.58;86.66;101500.43;99770;1290;96350;-71
2022/11/13 16:41:48;;;;;;;35.20;22.10;;;;;;;9.53;86.61;101498.23;99658;1292;138274;-70
2022/11/13 16:44:34;;;;;;;36.90;22.50;;;;;;;9.51;86.84;101503.27;99778;1284;96539;-71
2022/11/13 16:47:23;;;;;;;39.00;22.50;;;;;;;9.49;86.90;101498.06;99832;1282;138736;-69
2022/11/13 16:50:15;;;;;;;35.20;21.90;;;;;;;9.47;86.96;101499.13;99921;1289;106939;-70
2022/11/13 16:53:01;;;;;;;35.20;21.90;;;;;;;9.45;87.02;101501.92;99848;1289;96507;-70
2022/11/13 16:55:47;;;;;;;37.10;21.40;;;;;;;9.44;87.11;101496.89;99930;1284;105767;-70
2022/11/13 16:58:32;;;;;;;40.10;21.90;;;;;;;9.43;87.31;101495.34;99910;1291;96867;-70
2022/11/13 17:01:21;;;;;;;38.10;22.00;;;;;;;9.42;87.41;101496.73;99833;1298;139220;-70
2022/11/13 17:04:07;;;;;;;35.90;21.30;;;;;;;9.44;87.46;101501.06;99866;1291;106662;-70
2022/11/13 17:06:52;;;;;;;35.70;21.10;;;;;;;9.44;87.46;101495.33;99850;1299;138938;-70
2022/11/13 17:09:44;;;;;;;35.20;19.00;;;;;;;9.45;87.52;101493.23;99915;1291;107372;-70
2022/11/13 17:12:29;;;;;;;31.40;20.10;;;;;;;9.46;87.52;101492.89;99901;1296;138103;-71
2022/11/13 17:15:19;;;;;;;35.20;20.20;;;;;;;9.46;87.53;101499.48;99940;1289;109901;-70
2022/11/13 17:18:05;;;;;;;33.30;19.40;;;;;;;9.46;87.49;101498.96;99842;1288;138997;-70
2022/11/13 17:20:53;;;;;;;33.50;19.30;;;;;;;9.44;87.37;101499.15;100801;1288;95092;-71
2022/11/13 17:23:39;;;;;;;34.70;19.90;;;;;;;9.43;87.43;101494.83;99915;1285;138222;-70
2022/11/13 17:26:25;;;;;;;34.50;19.20;;;;;;;9.39;87.40;101495.03;99980;1289;96683;-70
2022/11/13 17:29:11;;;;;;;34.40;19.00;;;;;;;9.36;87.42;101493.67;100006;1285;110298;-71
2022/11/13 17:31:57;;;;;;;29.80;18.20;;;;;;;9.34;87.42;101491.42;101470;1291;106495;-71
2022/11/13 17:34:43;;;;;;;37.00;20.10;;;;;;;9.32;87.52;101487.94;101435;1282;95649;-71
2022/11/13 17:37:28;;;;;;;33.20;18.70;;;;;;;9.30;87.56;101486.75;101410;1291;138647;-70
2022/11/13 17:40:15;;;;;;;36.50;21.00;;;;;;;9.28;87.54;101494.75;101466;1291;94688;-69
2022/11/13 17:43:00;;;;;;;37.00;21.30;;;;;;;9.24;87.71;101491.48;101414;1291;139997;-69
2022/11/13 17:45:51;;;;;;;40.50;22.70;;;;;;;9.23;87.84;101491.15;100424;1289;107157;-69
2022/11/13 17:48:37;;;;;;;40.50;22.30;;;;;;;9.21;88.00;101490.82;99850;1289;139182;-68
2022/11/13 17:51:23;;;;;;;44.10;23.00;;;;;;;9.18;88.03;101491.02;100050;1281;108734;-69
2022/11/13 17:54:09;;;;;;;45.30;23.10;;;;;;;9.15;87.98;101483.21;99822;1288;138164;-70
2022/11/13 17:56:55;;;;;;;43.90;23.80;;;;;;;9.09;88.05;101480.31;99863;1281;109251;-71
2022/11/13 17:59:41;;;;;;;44.70;23.70;;;;;;;9.06;88.12;101473.73;99753;1281;138380;-70
2022/11/13 18:02:27;;;;;;;44.70;22.40;;;;;;;9.03;88.14;101474.10;99935;1289;96482;-71
2022/11/13 18:05:15;;;;;;;44.70;21.60;;;;;;;8.98;88.09;101470.49;99799;1281;106963;-71
2022/11/13 18:08:00;;;;;;;43.10;22.50;;;;;;;8.94;88.17;101468.94;101444;1295;95670;-71
2022/11/13 18:10:46;;;;;;;40.00;21.10;;;;;;;8.93;88.39;101471.20;101508;1281;109628;-71
2022/11/13 18:13:32;;;;;;;43.30;21.50;;;;;;;8.92;88.46;101472.25;100624;1291;138235;-71
2022/11/13 18:16:20;;;;;;;45.90;22.40;;;;;;;8.89;88.43;101471.92;99972;1290;96496;-71
2022/11/13 18:19:08;;;;;;;45.00;21.80;;;;;;;8.88;88.60;101470.55;99918;1288;139153;-71
2022/11/13 18:21:53;;;;;;;41.80;21.60;;;;;;;8.85;88.67;101467.97;99991;1289;96488;-70
2022/11/13 18:24:40;;;;;;;39.60;21.10;;;;;;;8.81;88.71;101466.25;99874;1294;137973;-71
2022/11/13 18:27:26;;;;;;;46.70;22.20;;;;;;;8.79;88.87;101464.16;99974;1289;108676;-71
2022/11/13 18:30:12;;;;;;;44.70;22.70;;;;;;;8.77;89.01;101459.50;99895;1281;138345;-70
2022/11/13 18:33:01;;;;;;;44.70;21.50;;;;;;;8.72;89.10;101461.78;101498;1296;107413;-71
2022/11/13 18:35:46;;;;;;;42.20;21.80;;;;;;;8.70;89.28;101464.58;99937;1294;140445;-71
2022/11/13 18:38:32;;;;;;;46.30;21.00;;;;;;;8.67;89.40;101466.15;101135;1289;108756;-70
2022/11/13 18:41:20;;;;;;;48.10;22.60;;;;;;;8.61;89.49;101468.09;101525;1289;107752;-71
2022/11/13 18:44:06;;;;;;;46.40;21.80;;;;;;;8.54;89.50;101471.76;101535;1289;94511;-71
2022/11/13 18:46:52;;;;;;;39.80;20.60;;;;;;;8.52;89.72;101468.81;101082;1284;108143;-71
2022/11/13 18:49:38;;;;;;;42.10;20.80;;;;;;;8.52;89.77;101458.08;99878;1289;138209;-70
2022/11/13 18:52:24;;;;;;;40.60;20.40;;;;;;;8.55;90.07;101461.70;100320;1296;109385;-71
2022/11/13 18:55:10;;;;;;;39.50;19.50;;;;;;;8.56;90.03;101463.08;101363;1289;138764;-71
2022/11/13 18:57:55;;;;;;;44.70;22.20;;;;;;;8.58;90.24;101465.48;101547;1296;94694;-71
2022/11/13 19:00:41;;;;;;;40.70;20.90;;;;;;;8.61;90.12;101465.83;101439;1296;138049;-71
2022/11/13 19:03:27;;;;;;;46.10;23.70;;;;;;;8.62;90.13;101472.08;101451;1275;96148;-71
2022/11/13 19:06:17;;;;;;;48.30;23.60;;;;;;;8.61;89.95;101475.88;101139;1296;200004;-71
2022/11/13 19:09:04;;;;;;;49.00;24.40;;;;;;;8.59;89.86;101481.77;101366;1290;106821;-71
2022/11/13 19:11:50;;;;;;;45.00;21.50;;;;;;;8.58;90.02;101481.79;101359;1281;138926;-73
2022/11/13 19:14:36;;;;;;;37.60;19.00;;;;;;;8.55;89.23;101481.28;101443;1296;107445;-73
2022/11/13 19:17:21;;;;;;;37.30;18.60;;;;;;;8.45;88.68;101482.71;100172;1285;96483;-71
2022/11/13 19:20:10;;;;;;;37.90;19.70;;;;;;;8.36;88.47;101481.89;99916;1289;108406;-72
2022/11/13 19:22:56;;;;;;;39.50;18.90;;;;;;;8.28;88.61;101481.70;101415;1282;107520;-72
2022/11/13 19:25:42;;;;;;;36.50;18.60;;;;;;;8.22;88.63;101487.08;101029;1281;138335;-73
2022/11/13 19:28:29;;;;;;;36.00;18.50;;;;;;;8.18;88.74;101487.27;99880;1289;107705;-73
2022/11/13 19:31:18;;;;;;;44.30;20.50;;;;;;;8.15;88.92;101483.30;99862;1289;138792;-74
2022/11/13 19:34:07;;;;;;;35.30;17.50;;;;;;;8.14;89.01;101479.84;99938;1281;110829;-72
2022/11/13 19:36:53;;;;;;;38.60;18.60;;;;;;;8.12;89.10;101478.27;101282;1291;138965;-73
2022/11/13 19:39:39;;;;;;;36.60;19.40;;;;;;;8.13;89.24;101485.38;101526;1296;94708;-73
2022/11/13 19:42:25;;;;;;;40.90;19.30;;;;;;;8.15;89.24;101483.45;101381;1291;139295;-73